ECP45K LPMA-EBLG
Flight info
| Callsign | ECP45K |
|---|---|
| Flight time | N/A |
| Altitude | 34000 |
| Route | LAPPA DCT GALPA DCT NASAS DCT OLBOD DCT XAMAX DCT BALNO DCT RONSI N873 DELOG DCT YURZI UL14 TEPRA UN867 MOKOR UN873 BAZOS DCT CMB DCT CIV |
| Aircraft | A320/M-SDE3FGHIRWY/LB1 |
Departure
| Time | 2026-05-06 17:31 |
|---|---|
| Airport | Cristiano Ronaldo International Airport (LPMA) |
Arrival
| Time | N/A |
|---|---|
| Airport | Liège Airport (EBLG) |
| Time | Latitude | Longitude | Altitude | Speed | Heading |
|---|---|---|---|---|---|
| 2026-05-06 17:12 | 32.69480 | -16.77467 | 169 ft | 0 kts | 138° |
| 2026-05-06 17:23 | 32.69469 | -16.77455 | 165 ft | 1 kts | 138° |
| 2026-05-06 17:23 | 32.69474 | -16.77461 | 167 ft | 0 kts | 136° |
| 2026-05-06 17:23 | 32.69482 | -16.77469 | 169 ft | 2 kts | 139° |
| 2026-05-06 17:23 | 32.69493 | -16.77481 | 173 ft | 2 kts | 138° |
| 2026-05-06 17:24 | 32.69504 | -16.77492 | 176 ft | 2 kts | 138° |
| 2026-05-06 17:24 | 32.69515 | -16.77504 | 180 ft | 2 kts | 138° |
| 2026-05-06 17:24 | 32.69527 | -16.77516 | 183 ft | 2 kts | 138° |
| 2026-05-06 17:24 | 32.69538 | -16.77527 | 186 ft | 2 kts | 160° |
| 2026-05-06 17:25 | 32.69552 | -16.77527 | 188 ft | 2 kts | 204° |
| 2026-05-06 17:25 | 32.69559 | -16.77522 | 189 ft | 0 kts | 229° |
| 2026-05-06 17:25 | 32.69562 | -16.77517 | 188 ft | 0 kts | 227° |
| 2026-05-06 17:28 | 32.69511 | -16.77581 | 188 ft | 31 kts | 227° |
| 2026-05-06 17:28 | 32.69357 | -16.77771 | 181 ft | 26 kts | 227° |
| 2026-05-06 17:29 | 32.69292 | -16.77899 | 178 ft | 13 kts | 265° |
| 2026-05-06 17:29 | 32.69260 | -16.78055 | 178 ft | 22 kts | 221° |
| 2026-05-06 17:29 | 32.69125 | -16.78222 | 162 ft | 36 kts | 224° |
| 2026-05-06 17:29 | 32.68983 | -16.78381 | 146 ft | 20 kts | 208° |
| 2026-05-06 17:30 | 32.68897 | -16.78449 | 136 ft | 8 kts | 305° |
| 2026-05-06 17:30 | 32.68989 | -16.78381 | 147 ft | 43 kts | 43° |
| 2026-05-06 17:30 | 32.69354 | -16.77953 | 191 ft | 102 kts | 44° |
| 2026-05-06 17:30 | 32.70003 | -16.77190 | 202 ft | 156 kts | 42° |
| 2026-05-06 17:31 | 32.70761 | -16.76193 | 644 ft | 164 kts | 47° |
| 2026-05-06 17:31 | 32.71276 | -16.75002 | 1282 ft | 171 kts | 82° |
| 2026-05-06 17:31 | 32.70994 | -16.73625 | 1898 ft | 180 kts | 108° |
| 2026-05-06 17:31 | 32.70475 | -16.72214 | 2311 ft | 196 kts | 108° |
| 2026-05-06 17:32 | 32.69943 | -16.70648 | 2690 ft | 213 kts | 107° |
| 2026-05-06 17:32 | 32.69381 | -16.68917 | 3032 ft | 235 kts | 107° |
| 2026-05-06 17:32 | 32.68782 | -16.67049 | 3467 ft | 252 kts | 108° |
| 2026-05-06 17:32 | 32.68146 | -16.65047 | 4012 ft | 265 kts | 108° |
| 2026-05-06 17:33 | 32.67491 | -16.62994 | 4741 ft | 269 kts | 108° |
| 2026-05-06 17:33 | 32.66832 | -16.60921 | 5468 ft | 274 kts | 108° |
| 2026-05-06 17:33 | 32.66154 | -16.58784 | 6195 ft | 278 kts | 108° |
| 2026-05-06 17:33 | 32.65528 | -16.56605 | 6880 ft | 281 kts | 98° |
| 2026-05-06 17:34 | 32.65632 | -16.54340 | 7546 ft | 279 kts | 67° |
| 2026-05-06 17:34 | 32.66613 | -16.52443 | 8261 ft | 274 kts | 42° |
| 2026-05-06 17:34 | 32.68007 | -16.50897 | 8962 ft | 276 kts | 39° |
| 2026-05-06 17:34 | 32.69422 | -16.49338 | 9665 ft | 279 kts | 39° |
| 2026-05-06 17:35 | 32.70824 | -16.47777 | 10337 ft | 282 kts | 39° |
| 2026-05-06 17:35 | 32.72287 | -16.46134 | 10770 ft | 295 kts | 40° |
| 2026-05-06 17:35 | 32.73830 | -16.44395 | 11057 ft | 312 kts | 40° |
| 2026-05-06 17:36 | 32.77099 | -16.40684 | 11869 ft | 333 kts | 40° |
| 2026-05-06 17:36 | 32.78775 | -16.38765 | 12502 ft | 336 kts | 40° |
| 2026-05-06 17:36 | 32.80473 | -16.36826 | 13095 ft | 340 kts | 40° |
| 2026-05-06 17:36 | 32.82162 | -16.34893 | 13687 ft | 342 kts | 40° |
| 2026-05-06 17:37 | 32.83879 | -16.32927 | 14231 ft | 346 kts | 40° |
| 2026-05-06 17:37 | 32.85631 | -16.30921 | 14783 ft | 349 kts | 40° |
| 2026-05-06 17:37 | 32.87365 | -16.28935 | 15333 ft | 351 kts | 40° |
| 2026-05-06 17:37 | 32.89144 | -16.26893 | 15854 ft | 354 kts | 40° |
| 2026-05-06 17:38 | 32.90910 | -16.24871 | 16359 ft | 357 kts | 40° |
| 2026-05-06 17:38 | 32.92711 | -16.22800 | 16867 ft | 360 kts | 40° |
| 2026-05-06 17:38 | 32.94497 | -16.20750 | 17364 ft | 362 kts | 40° |
| 2026-05-06 17:38 | 32.96327 | -16.18648 | 17866 ft | 364 kts | 40° |
| 2026-05-06 17:39 | 32.98139 | -16.16562 | 18324 ft | 366 kts | 39° |
| 2026-05-06 17:39 | 32.99962 | -16.14465 | 18789 ft | 368 kts | 39° |
| 2026-05-06 17:39 | 33.01817 | -16.12329 | 19253 ft | 371 kts | 39° |
| 2026-05-06 17:39 | 33.03662 | -16.10202 | 19718 ft | 372 kts | 39° |
| 2026-05-06 17:40 | 33.05536 | -16.08039 | 20182 ft | 374 kts | 39° |
| 2026-05-06 17:40 | 33.07416 | -16.05870 | 20623 ft | 376 kts | 39° |
| 2026-05-06 17:40 | 33.09291 | -16.03708 | 21053 ft | 378 kts | 39° |
| 2026-05-06 17:40 | 33.11174 | -16.01533 | 21492 ft | 379 kts | 39° |
| 2026-05-06 17:41 | 33.13058 | -15.99353 | 21935 ft | 380 kts | 39° |
| 2026-05-06 17:41 | 33.14967 | -15.97146 | 22345 ft | 382 kts | 39° |
| 2026-05-06 17:41 | 33.16874 | -15.94940 | 22745 ft | 384 kts | 39° |
| 2026-05-06 17:41 | 33.18798 | -15.92710 | 23137 ft | 386 kts | 38° |
| 2026-05-06 17:42 | 33.20714 | -15.90490 | 23530 ft | 388 kts | 39° |
| 2026-05-06 17:42 | 33.22657 | -15.88237 | 23899 ft | 390 kts | 38° |
| 2026-05-06 17:42 | 33.24620 | -15.85959 | 24279 ft | 392 kts | 38° |
| 2026-05-06 17:42 | 33.26564 | -15.83701 | 24640 ft | 394 kts | 38° |
| 2026-05-06 17:43 | 33.28536 | -15.81408 | 25029 ft | 395 kts | 38° |
| 2026-05-06 17:43 | 33.30499 | -15.79122 | 25392 ft | 397 kts | 38° |
| 2026-05-06 17:43 | 33.32485 | -15.76810 | 25777 ft | 398 kts | 38° |
| 2026-05-06 17:43 | 33.34477 | -15.74489 | 26138 ft | 399 kts | 38° |
| 2026-05-06 17:44 | 33.36446 | -15.72190 | 26445 ft | 401 kts | 38° |
| 2026-05-06 17:44 | 33.38461 | -15.69841 | 26786 ft | 402 kts | 38° |
| 2026-05-06 17:44 | 33.40453 | -15.67531 | 27098 ft | 403 kts | 37° |
| 2026-05-06 17:44 | 33.42556 | -15.65292 | 27384 ft | 403 kts | 34° |
| 2026-05-06 17:45 | 33.44719 | -15.63208 | 27694 ft | 402 kts | 32° |
| 2026-05-06 17:45 | 33.46940 | -15.61131 | 27987 ft | 404 kts | 31° |
| 2026-05-06 17:45 | 33.49140 | -15.59077 | 28271 ft | 405 kts | 32° |
| 2026-05-06 17:45 | 33.51369 | -15.56996 | 28581 ft | 406 kts | 31° |
| 2026-05-06 17:46 | 33.53613 | -15.54899 | 28832 ft | 408 kts | 32° |
| 2026-05-06 17:46 | 33.55846 | -15.52811 | 29072 ft | 409 kts | 32° |
| 2026-05-06 17:46 | 33.58101 | -15.50699 | 29382 ft | 410 kts | 32° |
| 2026-05-06 17:46 | 33.60325 | -15.48612 | 29642 ft | 410 kts | 31° |
| 2026-05-06 17:47 | 33.62584 | -15.46489 | 29866 ft | 412 kts | 31° |
| 2026-05-06 17:47 | 33.64835 | -15.44377 | 30058 ft | 414 kts | 31° |
| 2026-05-06 17:47 | 33.67108 | -15.42242 | 30312 ft | 414 kts | 32° |
| 2026-05-06 17:47 | 33.69367 | -15.40118 | 30520 ft | 415 kts | 31° |
| 2026-05-06 17:48 | 33.71653 | -15.37967 | 30700 ft | 417 kts | 31° |
| 2026-05-06 17:48 | 33.73948 | -15.35805 | 30871 ft | 419 kts | 32° |
| 2026-05-06 17:48 | 33.76221 | -15.33660 | 31080 ft | 419 kts | 32° |
| 2026-05-06 17:48 | 33.78533 | -15.31478 | 31277 ft | 420 kts | 32° |
| 2026-05-06 17:49 | 33.80839 | -15.29299 | 31484 ft | 420 kts | 32° |
| 2026-05-06 17:49 | 33.83111 | -15.27152 | 31735 ft | 420 kts | 32° |
| 2026-05-06 17:49 | 33.85423 | -15.24967 | 31935 ft | 420 kts | 32° |
| 2026-05-06 17:49 | 33.87698 | -15.22813 | 32127 ft | 420 kts | 32° |
| 2026-05-06 17:50 | 33.90005 | -15.20629 | 32314 ft | 421 kts | 32° |
| 2026-05-06 17:50 | 33.92290 | -15.18464 | 32482 ft | 421 kts | 32° |
| 2026-05-06 17:50 | 33.94601 | -15.16273 | 32622 ft | 423 kts | 32° |
| 2026-05-06 17:50 | 33.96926 | -15.14067 | 32750 ft | 424 kts | 32° |
| 2026-05-06 17:51 | 33.99226 | -15.11882 | 32902 ft | 425 kts | 32° |
| 2026-05-06 17:51 | 34.01552 | -15.09672 | 33057 ft | 425 kts | 32° |
| 2026-05-06 17:51 | 34.03885 | -15.07453 | 33202 ft | 426 kts | 32° |
| 2026-05-06 17:51 | 34.06220 | -15.05231 | 33309 ft | 427 kts | 32° |
| 2026-05-06 17:52 | 34.08541 | -15.03019 | 33439 ft | 428 kts | 32° |
| 2026-05-06 17:52 | 34.10863 | -15.00806 | 33545 ft | 429 kts | 32° |
| 2026-05-06 17:52 | 34.13213 | -14.98566 | 33688 ft | 430 kts | 32° |
| 2026-05-06 17:52 | 34.15566 | -14.96319 | 33846 ft | 430 kts | 32° |
| 2026-05-06 17:53 | 34.17900 | -14.94088 | 33949 ft | 431 kts | 32° |
| 2026-05-06 17:53 | 34.20265 | -14.91827 | 34037 ft | 433 kts | 32° |
| 2026-05-06 17:53 | 34.24977 | -14.87317 | 34050 ft | 435 kts | 32° |
| 2026-05-06 17:54 | 34.29731 | -14.82758 | 34049 ft | 435 kts | 32° |
| 2026-05-06 17:54 | 34.34479 | -14.78195 | 34052 ft | 436 kts | 32° |
| 2026-05-06 17:55 | 34.39209 | -14.73652 | 34056 ft | 436 kts | 32° |
| 2026-05-06 17:55 | 34.44065 | -14.69299 | 34047 ft | 435 kts | 30° |
| 2026-05-06 17:56 | 34.48980 | -14.64960 | 34056 ft | 435 kts | 30° |
| 2026-05-06 17:56 | 34.53855 | -14.60642 | 34051 ft | 435 kts | 30° |
| 2026-05-06 17:57 | 34.58760 | -14.56290 | 34050 ft | 436 kts | 30° |
| 2026-05-06 17:57 | 34.63646 | -14.51940 | 34052 ft | 438 kts | 30° |
| 2026-05-06 17:58 | 34.68547 | -14.47570 | 34054 ft | 437 kts | 30° |
| 2026-05-06 17:58 | 34.73447 | -14.43195 | 34050 ft | 438 kts | 30° |
| 2026-05-06 17:59 | 34.78354 | -14.38805 | 34045 ft | 439 kts | 30° |
| 2026-05-06 17:59 | 34.83280 | -14.34390 | 34050 ft | 439 kts | 31° |
| 2026-05-06 18:00 | 34.88187 | -14.29991 | 34046 ft | 441 kts | 31° |
| 2026-05-06 18:00 | 34.93142 | -14.25539 | 34045 ft | 442 kts | 31° |
| 2026-05-06 18:01 | 34.98067 | -14.21106 | 34049 ft | 441 kts | 31° |
| 2026-05-06 18:01 | 35.02996 | -14.16667 | 34044 ft | 442 kts | 31° |
| 2026-05-06 18:02 | 35.07944 | -14.12200 | 34040 ft | 443 kts | 31° |
| 2026-05-06 18:02 | 35.12915 | -14.07708 | 34040 ft | 443 kts | 31° |
| 2026-05-06 18:03 | 35.17891 | -14.03200 | 34038 ft | 444 kts | 31° |
| 2026-05-06 18:03 | 35.22849 | -13.98706 | 34035 ft | 444 kts | 31° |
| 2026-05-06 18:04 | 35.27808 | -13.94205 | 34033 ft | 445 kts | 31° |
| 2026-05-06 18:04 | 35.32771 | -13.89689 | 34034 ft | 446 kts | 31° |
| 2026-05-06 18:05 | 35.37778 | -13.85129 | 34034 ft | 445 kts | 31° |
| 2026-05-06 18:05 | 35.42748 | -13.80593 | 34032 ft | 447 kts | 31° |
| 2026-05-06 18:06 | 35.47727 | -13.76043 | 34029 ft | 447 kts | 31° |
| 2026-05-06 18:06 | 35.52724 | -13.71468 | 34030 ft | 447 kts | 31° |
| 2026-05-06 18:07 | 35.57705 | -13.66901 | 34027 ft | 448 kts | 31° |
| 2026-05-06 18:07 | 35.62690 | -13.62322 | 34029 ft | 449 kts | 31° |
| 2026-05-06 18:08 | 35.67718 | -13.57699 | 34026 ft | 450 kts | 31° |
| 2026-05-06 18:08 | 35.72719 | -13.53092 | 34028 ft | 450 kts | 31° |
| 2026-05-06 18:09 | 35.77719 | -13.48477 | 34029 ft | 451 kts | 31° |
| 2026-05-06 18:09 | 35.82751 | -13.43829 | 34025 ft | 453 kts | 31° |
| 2026-05-06 18:10 | 35.87802 | -13.39153 | 34026 ft | 453 kts | 31° |
| 2026-05-06 18:10 | 35.92818 | -13.34500 | 34025 ft | 453 kts | 32° |
| 2026-05-06 18:11 | 35.97060 | -13.30564 | 34024 ft | 456 kts | 32° |
| 2026-05-06 18:11 | 36.02949 | -13.25083 | 34026 ft | 457 kts | 32° |
| 2026-05-06 18:12 | 36.08051 | -13.20328 | 34023 ft | 456 kts | 32° |
| 2026-05-06 18:12 | 36.13115 | -13.15599 | 34022 ft | 458 kts | 32° |
| 2026-05-06 18:13 | 36.18196 | -13.10846 | 34018 ft | 457 kts | 32° |
| 2026-05-06 18:13 | 36.23296 | -13.06065 | 34017 ft | 459 kts | 33° |
| 2026-05-06 18:14 | 36.28394 | -13.01275 | 34021 ft | 459 kts | 33° |
| 2026-05-06 18:14 | 36.33373 | -12.96298 | 34013 ft | 462 kts | 38° |
| 2026-05-06 18:15 | 36.38051 | -12.90722 | 34020 ft | 464 kts | 40° |
| 2026-05-06 18:15 | 36.42665 | -12.85050 | 34015 ft | 465 kts | 40° |
| 2026-05-06 18:16 | 36.47246 | -12.79415 | 34017 ft | 465 kts | 40° |
| 2026-05-06 18:16 | 36.51825 | -12.73780 | 34015 ft | 465 kts | 40° |
| 2026-05-06 18:17 | 36.56443 | -12.68094 | 34016 ft | 466 kts | 41° |
| 2026-05-06 18:17 | 36.61033 | -12.62429 | 34019 ft | 466 kts | 40° |
| 2026-05-06 18:18 | 36.65623 | -12.56757 | 34010 ft | 466 kts | 41° |
| 2026-05-06 18:18 | 36.70230 | -12.51053 | 34013 ft | 467 kts | 41° |
| 2026-05-06 18:19 | 36.74845 | -12.45330 | 34016 ft | 467 kts | 41° |
| 2026-05-06 18:19 | 36.79438 | -12.39624 | 34012 ft | 468 kts | 41° |
| 2026-05-06 18:20 | 36.84031 | -12.33907 | 34014 ft | 468 kts | 41° |
| 2026-05-06 18:20 | 36.88646 | -12.28149 | 34016 ft | 469 kts | 41° |
| 2026-05-06 18:21 | 36.93241 | -12.22411 | 34010 ft | 470 kts | 41° |
| 2026-05-06 18:21 | 36.97871 | -12.16617 | 34014 ft | 471 kts | 41° |
| 2026-05-06 18:22 | 37.02475 | -12.10844 | 34014 ft | 472 kts | 41° |
| 2026-05-06 18:22 | 37.07113 | -12.05020 | 34007 ft | 472 kts | 41° |
| 2026-05-06 18:23 | 37.11726 | -11.99213 | 34013 ft | 472 kts | 41° |
| 2026-05-06 18:23 | 37.16365 | -11.93366 | 34012 ft | 473 kts | 41° |
| 2026-05-06 18:24 | 37.20977 | -11.87541 | 34007 ft | 474 kts | 41° |
| 2026-05-06 18:24 | 37.25618 | -11.81666 | 34004 ft | 474 kts | 41° |